createdAt,value
2018-06-08T00:01:40.948Z,5.60
2018-06-08T00:04:10.112Z,4.90
2018-06-08T00:06:39.233Z,4.57
2018-06-08T00:09:09.061Z,4.80
2018-06-08T00:11:38.227Z,4.60
2018-06-08T00:14:07.068Z,4.20
2018-06-08T00:16:36.095Z,4.83
2018-06-08T00:19:05.245Z,4.20
2018-06-08T00:21:34.357Z,4.70
2018-06-08T00:24:03.533Z,3.90
2018-06-08T00:26:32.742Z,4.50
2018-06-08T00:29:01.924Z,4.53
2018-06-08T00:31:31.120Z,4.27
2018-06-08T00:34:00.258Z,4.40
2018-06-08T00:36:29.416Z,4.63
2018-06-08T00:38:58.545Z,4.90
2018-06-08T00:41:27.777Z,4.33
2018-06-08T00:43:56.913Z,4.50
2018-06-08T00:46:26.047Z,3.90
2018-06-08T00:48:55.206Z,4.17
2018-06-08T00:51:25.390Z,4.23
2018-06-08T00:53:54.517Z,4.60
2018-06-08T00:56:34.910Z,4.70
2018-06-08T00:59:04.075Z,4.77
2018-06-08T01:01:34.447Z,4.37
2018-06-08T01:04:04.615Z,4.33
2018-06-08T01:06:33.749Z,3.80
2018-06-08T01:09:03.120Z,3.93
2018-06-08T01:11:32.246Z,3.77
2018-06-08T01:14:01.388Z,4.40
2018-06-08T01:16:30.538Z,3.83
2018-06-08T01:19:02.837Z,3.90
2018-06-08T01:21:32.290Z,4.30
2018-06-08T01:24:01.419Z,4.77
2018-06-08T01:26:30.822Z,4.87
2018-06-08T01:29:00.030Z,4.47
2018-06-08T01:31:29.136Z,3.70
2018-06-08T01:33:58.233Z,4.03
2018-06-08T01:36:27.451Z,3.40
2018-06-08T01:38:56.599Z,3.83
2018-06-08T01:41:25.744Z,3.83
2018-06-08T01:43:54.922Z,4.60
2018-06-08T01:46:24.024Z,3.53
2018-06-08T01:48:53.159Z,3.43
2018-06-08T01:51:22.307Z,4.13
2018-06-08T01:53:51.427Z,3.93
2018-06-08T01:56:20.666Z,4.20
2018-06-08T01:58:49.923Z,4.20
2018-06-08T02:01:19.070Z,4.47
2018-06-08T02:03:48.216Z,3.67
2018-06-08T02:06:18.375Z,4.47
2018-06-08T02:08:47.775Z,4.57
2018-06-08T02:11:17.043Z,3.37
2018-06-08T02:13:46.134Z,3.93
2018-06-08T02:16:15.279Z,4.07
2018-06-08T02:18:44.629Z,4.43
2018-06-08T02:21:13.757Z,5.00
2018-06-08T02:23:42.924Z,4.70
2018-06-08T02:26:12.076Z,5.03
2018-06-08T02:28:41.262Z,4.83
2018-06-08T02:31:10.453Z,4.80
2018-06-08T02:33:39.577Z,4.63
2018-06-08T02:36:08.751Z,5.20
2018-06-08T02:38:37.914Z,4.47
2018-06-08T02:41:07.067Z,4.53
2018-06-08T02:43:36.255Z,5.33
2018-06-08T02:46:05.454Z,5.53
2018-06-08T02:48:34.632Z,5.00
2018-06-08T02:51:03.797Z,5.00
2018-06-08T02:53:32.993Z,5.60
2018-06-08T02:56:02.125Z,5.10
2018-06-08T02:58:31.300Z,5.23
2018-06-08T03:01:00.483Z,4.60
2018-06-08T03:03:29.630Z,4.13
2018-06-08T03:05:58.813Z,4.30
2018-06-08T03:08:28.006Z,4.80
2018-06-08T03:10:57.208Z,4.60
2018-06-08T03:13:26.368Z,4.60
2018-06-08T03:15:55.732Z,5.13
2018-06-08T03:18:24.916Z,5.60
2018-06-08T03:20:54.197Z,5.70
2018-06-08T03:23:23.734Z,5.40
2018-06-08T03:25:52.906Z,6.77
2018-06-08T03:28:22.064Z,6.57
2018-06-08T03:30:51.258Z,7.07
2018-06-08T03:33:20.449Z,6.27
2018-06-08T03:35:49.549Z,6.93
2018-06-08T03:38:18.747Z,8.07
2018-06-08T03:40:47.902Z,6.73
2018-06-08T03:43:17.056Z,7.20
2018-06-08T03:45:46.209Z,6.47
2018-06-08T03:48:15.366Z,5.73
2018-06-08T03:50:44.578Z,6.77
2018-06-08T03:53:13.712Z,6.70
2018-06-08T03:55:42.860Z,6.80
2018-06-08T04:00:47.386Z,6.40
2018-06-08T04:03:16.559Z,6.67
2018-06-08T04:05:46.105Z,6.80
2018-06-08T04:08:15.241Z,6.57
2018-06-08T04:10:44.395Z,6.97
2018-06-08T04:13:13.566Z,7.13
2018-06-08T04:15:42.429Z,7.40
2018-06-08T04:18:11.458Z,7.37
2018-06-08T04:20:40.595Z,8.03
2018-06-08T04:23:09.740Z,7.63
2018-06-08T04:25:38.938Z,8.07
2018-06-08T04:28:08.091Z,7.90
2018-06-08T04:30:37.252Z,7.20
2018-06-08T04:33:06.512Z,7.53
2018-06-08T04:35:35.658Z,7.37
2018-06-08T04:38:04.820Z,6.50
2018-06-08T04:40:33.983Z,6.40
2018-06-08T04:43:03.110Z,6.70
2018-06-08T04:45:32.270Z,6.27
2018-06-08T04:48:01.852Z,6.47
2018-06-08T04:50:31.057Z,6.50
2018-06-08T04:53:00.270Z,6.10
2018-06-08T04:55:29.443Z,6.53
2018-06-08T04:57:58.608Z,6.40
2018-06-08T05:00:27.735Z,6.40
2018-06-08T05:02:56.906Z,6.90
2018-06-08T05:05:26.062Z,6.17
2018-06-08T05:07:55.239Z,6.10
2018-06-08T05:10:24.331Z,6.47
2018-06-08T05:12:53.484Z,6.17
2018-06-08T05:15:22.600Z,6.17
2018-06-08T05:17:51.754Z,5.53
2018-06-08T05:20:20.953Z,5.60
2018-06-08T05:22:50.097Z,6.40
2018-06-08T05:25:19.258Z,5.87
2018-06-08T05:27:48.415Z,5.87
2018-06-08T05:30:20.726Z,6.67
2018-06-08T05:32:49.833Z,5.70
2018-06-08T05:35:19.050Z,6.63
2018-06-08T05:37:48.183Z,5.73
2018-06-08T05:40:17.349Z,6.57
2018-06-08T05:42:46.810Z,5.83
2018-06-08T05:45:15.946Z,6.30
2018-06-08T05:47:45.310Z,6.10
2018-06-08T05:50:14.445Z,5.47
2018-06-08T05:52:43.626Z,6.30
2018-06-08T05:55:12.760Z,6.20
2018-06-08T05:57:42.016Z,6.40
2018-06-08T06:00:11.337Z,5.43
2018-06-08T06:02:40.497Z,5.77
2018-06-08T06:05:09.662Z,5.30
2018-06-08T06:07:38.863Z,6.00
2018-06-08T06:10:09.039Z,5.80
2018-06-08T06:12:38.230Z,5.77
2018-06-08T06:15:07.654Z,5.27
2018-06-08T06:17:36.735Z,5.30
2018-06-08T06:20:07.960Z,19.27
2018-06-08T06:22:37.090Z,6.43
2018-06-08T06:25:06.270Z,6.37
2018-06-08T06:27:35.412Z,5.90
2018-06-08T06:30:05.365Z,5.60
2018-06-08T06:32:35.008Z,5.00
2018-06-08T06:35:04.266Z,5.73
2018-06-08T06:37:33.568Z,5.17
2018-06-08T06:40:02.816Z,4.63
2018-06-08T06:42:32.130Z,5.43
2018-06-08T06:45:01.335Z,4.43
2018-06-08T06:47:31.480Z,5.33
2018-06-08T06:50:00.682Z,5.00
2018-06-08T06:52:29.886Z,5.20
2018-06-08T06:54:59.023Z,5.60
2018-06-08T06:57:28.193Z,5.65
2018-06-08T06:59:57.343Z,5.33
2018-06-08T07:02:26.726Z,5.35
2018-06-08T07:04:55.963Z,4.33
2018-06-08T07:07:25.122Z,5.53
2018-06-08T07:09:54.271Z,6.40
2018-06-08T07:12:23.449Z,6.10
2018-06-08T07:14:52.587Z,6.40
2018-06-08T07:17:21.767Z,6.10
2018-06-08T07:19:51.004Z,6.87
2018-06-08T07:22:24.046Z,6.42
2018-06-08T07:24:53.239Z,6.75
2018-06-08T07:27:22.340Z,6.25
2018-06-08T07:29:51.527Z,6.10
2018-06-08T07:32:20.728Z,6.12
2018-06-08T07:34:50.021Z,7.10
2018-06-08T07:37:19.278Z,7.08
2018-06-08T07:39:48.475Z,7.30
2018-06-08T07:42:17.681Z,6.95
2018-06-08T07:44:46.920Z,7.22
2018-06-08T07:47:16.149Z,7.40
2018-06-08T07:49:45.188Z,8.48
2018-06-08T07:52:14.369Z,7.62
2018-06-08T07:54:43.644Z,8.53
2018-06-08T07:57:12.853Z,7.87
2018-06-08T07:59:42.034Z,8.75
2018-06-08T08:02:11.235Z,8.55
2018-06-08T08:04:40.432Z,7.67
2018-06-08T08:07:09.689Z,8.40
2018-06-08T08:09:38.854Z,9.75
2018-06-08T08:12:08.058Z,9.15
2018-06-08T08:14:37.160Z,9.15
2018-06-08T08:17:06.399Z,8.63
2018-06-08T08:19:35.659Z,8.63
2018-06-08T08:22:04.825Z,9.65
2018-06-08T08:24:33.989Z,9.75
2018-06-08T08:27:03.239Z,12.82
2018-06-08T08:29:32.427Z,12.78
2018-06-08T08:32:01.642Z,9.68
2018-06-08T08:34:30.873Z,11.15
2018-06-08T08:37:00.106Z,9.75
2018-06-08T08:39:28.972Z,10.05
2018-06-08T08:41:58.001Z,9.95
2018-06-08T08:44:27.105Z,9.90
2018-06-08T08:46:56.401Z,10.68
2018-06-08T08:49:25.563Z,11.45
2018-06-08T08:51:54.708Z,11.15
2018-06-08T08:54:23.773Z,10.77
2018-06-08T08:56:52.982Z,9.88
2018-06-08T08:59:22.128Z,9.73
2018-06-08T09:01:52.511Z,11.60
2018-06-08T09:04:21.649Z,12.03
2018-06-08T09:06:53.022Z,10.73
2018-06-08T09:09:22.193Z,11.37
2018-06-08T09:11:51.386Z,11.30
2018-06-08T09:14:21.622Z,11.67
2018-06-08T09:16:50.976Z,11.07
2018-06-08T09:19:21.092Z,10.60
2018-06-08T09:21:50.277Z,10.07
2018-06-08T09:24:19.962Z,8.93
2018-06-08T09:26:49.098Z,10.30
2018-06-08T09:29:18.494Z,12.27
2018-06-08T09:31:47.589Z,9.93
2018-06-08T09:34:16.535Z,11.70
2018-06-08T09:36:45.575Z,10.83
2018-06-08T09:39:14.772Z,10.37
2018-06-08T09:41:44.029Z,10.93
2018-06-08T09:44:13.160Z,9.87
2018-06-08T09:46:42.459Z,9.93
2018-06-08T09:49:12.590Z,10.03
2018-06-08T09:51:41.860Z,10.70
2018-06-08T09:54:11.040Z,10.43
2018-06-08T09:56:40.247Z,12.77
2018-06-08T09:59:09.491Z,9.97
2018-06-08T10:01:38.666Z,9.57
2018-06-08T10:04:07.890Z,10.47
2018-06-08T10:06:37.156Z,9.63
2018-06-08T10:09:08.249Z,9.47
2018-06-08T10:11:37.362Z,9.87
2018-06-08T10:14:06.561Z,9.83
2018-06-08T10:16:35.785Z,10.57
2018-06-08T10:19:04.898Z,11.00
2018-06-08T10:21:34.104Z,9.67
2018-06-08T10:24:03.258Z,10.17
2018-06-08T10:26:32.398Z,11.83
2018-06-08T10:29:01.567Z,10.00
2018-06-08T10:31:30.747Z,10.97
2018-06-08T10:33:59.927Z,11.03
2018-06-08T10:36:29.084Z,9.27
2018-06-08T10:38:58.277Z,10.13
2018-06-08T10:41:27.413Z,8.80
2018-06-08T10:43:56.644Z,9.40
2018-06-08T10:46:25.778Z,9.17
2018-06-08T10:48:55.106Z,9.03
2018-06-08T10:51:24.234Z,9.30
2018-06-08T10:53:53.369Z,9.80
2018-06-08T10:56:22.618Z,9.77
2018-06-08T10:58:51.797Z,9.03
2018-06-08T11:01:21.010Z,9.67
2018-06-08T11:03:50.204Z,8.90
2018-06-08T11:06:19.372Z,8.80
2018-06-08T11:08:48.508Z,8.20
2018-06-08T11:11:17.756Z,9.40
2018-06-08T11:13:46.884Z,9.80
2018-06-08T11:16:16.026Z,8.97
2018-06-08T11:18:45.177Z,8.53
2018-06-08T11:21:14.320Z,8.57
2018-06-08T11:23:43.601Z,10.27
2018-06-08T11:26:12.822Z,9.33
2018-06-08T11:28:41.927Z,10.77
2018-06-08T11:31:11.085Z,9.37
2018-06-08T11:33:40.255Z,7.80
2018-06-08T11:36:09.551Z,9.10
2018-06-08T11:38:38.794Z,8.43
2018-06-08T11:41:07.932Z,9.20
2018-06-08T11:43:37.249Z,9.23
2018-06-08T11:46:06.444Z,8.90
2018-06-08T11:48:35.610Z,9.87
2018-06-08T11:51:04.799Z,9.37
2018-06-08T11:53:33.943Z,8.93
2018-06-08T11:56:03.105Z,8.77
2018-06-08T11:58:32.270Z,9.77
2018-06-08T12:01:01.367Z,9.47
2018-06-08T12:03:30.507Z,9.03
2018-06-08T12:05:59.641Z,8.47
2018-06-08T12:08:28.848Z,7.83
2018-06-08T12:10:58.022Z,8.53
2018-06-08T12:13:27.260Z,7.33
2018-06-08T12:15:56.416Z,9.63
2018-06-08T12:18:25.664Z,9.63
2018-06-08T12:20:54.859Z,9.47
2018-06-08T12:23:24.083Z,8.80
2018-06-08T12:25:53.294Z,8.40
2018-06-08T12:28:22.522Z,9.60
2018-06-08T12:30:51.762Z,7.97
2018-06-08T12:33:20.955Z,9.23
2018-06-08T12:35:50.131Z,11.50
2018-06-08T12:38:19.454Z,8.43
2018-06-08T12:40:48.688Z,9.87
2018-06-08T12:43:17.933Z,9.97
2018-06-08T12:45:47.147Z,7.80
2018-06-08T12:48:16.345Z,8.73
2018-06-08T12:50:45.749Z,8.73
2018-06-08T12:53:15.169Z,8.60
2018-06-08T12:55:44.590Z,9.43
2018-06-08T12:58:13.788Z,8.90
2018-06-08T13:00:43.052Z,9.13
2018-06-08T13:03:12.346Z,8.50
2018-06-08T13:05:41.624Z,9.35
2018-06-08T13:08:10.891Z,9.75
2018-06-08T13:10:40.148Z,9.47
2018-06-08T13:13:09.685Z,9.45
2018-06-08T13:15:39.657Z,9.27
2018-06-08T13:18:08.936Z,9.27
2018-06-08T13:20:38.243Z,8.83
2018-06-08T13:23:07.182Z,9.75
2018-06-08T13:25:36.334Z,10.88
2018-06-08T13:28:05.567Z,11.88
2018-06-08T13:30:34.772Z,10.65
2018-06-08T13:33:04.059Z,9.68
2018-06-08T13:35:33.538Z,8.93
2018-06-08T13:38:02.720Z,11.10
2018-06-08T13:40:32.055Z,10.23
2018-06-08T13:43:01.268Z,10.65
2018-06-08T13:45:31.337Z,12.55
2018-06-08T13:48:00.534Z,10.60
2018-06-08T13:50:29.874Z,10.80
2018-06-08T13:52:59.164Z,10.15
2018-06-08T13:55:28.439Z,10.40
2018-06-08T13:57:57.642Z,9.53
2018-06-08T14:00:26.930Z,9.90
2018-06-08T14:02:56.339Z,9.80
2018-06-08T14:05:25.622Z,9.85
2018-06-08T14:07:54.856Z,10.50
2018-06-08T14:10:24.180Z,10.00
2018-06-08T14:12:53.334Z,9.57
2018-06-08T14:15:22.774Z,9.58
2018-06-08T14:17:52.056Z,10.10
2018-06-08T14:20:21.328Z,10.08
2018-06-08T14:22:50.578Z,10.05
2018-06-08T14:25:19.810Z,10.35
2018-06-08T14:27:49.074Z,10.03
2018-06-08T14:30:18.278Z,9.35
2018-06-08T14:32:47.462Z,10.30
2018-06-08T14:35:16.706Z,10.45
2018-06-08T14:37:45.897Z,11.45
2018-06-08T14:40:15.142Z,9.18
2018-06-08T14:42:44.361Z,12.43
2018-06-08T14:45:13.535Z,10.73
2018-06-08T14:47:42.730Z,10.13
2018-06-08T14:50:11.985Z,10.10
2018-06-08T14:52:41.140Z,10.13
2018-06-08T14:55:10.330Z,9.77
2018-06-08T14:57:39.478Z,9.10
2018-06-08T15:00:08.737Z,9.13
2018-06-08T15:02:38.074Z,9.00
2018-06-08T15:05:07.539Z,8.80
2018-06-08T15:07:36.835Z,8.05
2018-06-08T15:10:06.259Z,8.67
2018-06-08T15:12:35.432Z,9.68
2018-06-08T15:15:04.950Z,19.37
2018-06-08T15:17:34.344Z,11.93
2018-06-08T15:20:03.697Z,14.15
2018-06-08T15:22:33.217Z,15.72
2018-06-08T15:25:02.587Z,10.25
2018-06-08T15:27:31.969Z,26.00
2018-06-08T15:30:01.305Z,18.65
2018-06-08T15:32:30.813Z,13.13
2018-06-08T15:35:00.222Z,8.55
2018-06-08T15:37:29.459Z,9.18
2018-06-08T15:39:58.722Z,9.10
2018-06-08T15:42:28.070Z,10.35
2018-06-08T15:44:57.336Z,8.30
2018-06-08T15:47:26.944Z,8.18
2018-06-08T15:49:56.119Z,8.08
2018-06-08T15:52:25.462Z,8.08
2018-06-08T15:54:54.707Z,7.78
2018-06-08T15:57:23.958Z,7.92
2018-06-08T15:59:53.139Z,7.63
2018-06-08T16:02:22.462Z,8.15
2018-06-08T16:04:51.746Z,7.58
2018-06-08T16:07:21.068Z,7.80
2018-06-08T16:09:50.253Z,7.33
2018-06-08T16:12:19.450Z,8.48
2018-06-08T16:14:48.713Z,8.08
2018-06-08T16:17:17.930Z,7.22
2018-06-08T16:19:47.055Z,7.85
2018-06-08T16:22:16.242Z,7.53
2018-06-08T16:24:45.429Z,7.50
2018-06-08T16:27:14.726Z,7.67
2018-06-08T16:29:44.144Z,7.65
2018-06-08T16:32:13.385Z,7.55
2018-06-08T16:34:42.620Z,7.17
2018-06-08T16:37:11.890Z,7.10
2018-06-08T16:39:41.080Z,7.20
2018-06-08T16:42:10.446Z,7.97
2018-06-08T16:44:39.640Z,7.63
2018-06-08T16:47:08.851Z,7.90
2018-06-08T16:49:38.099Z,7.87
2018-06-08T16:52:07.278Z,8.18
2018-06-08T16:54:36.481Z,8.80
2018-06-08T16:57:05.905Z,7.93
2018-06-08T16:59:35.050Z,8.03
2018-06-08T17:02:04.285Z,7.50
2018-06-08T17:04:33.478Z,8.20
2018-06-08T17:07:02.639Z,6.33
2018-06-08T17:09:31.804Z,5.65
2018-06-08T17:12:00.971Z,5.77
2018-06-08T17:14:30.106Z,5.30
2018-06-08T17:16:59.292Z,5.28
2018-06-08T17:19:28.509Z,5.90
2018-06-08T17:21:57.687Z,5.37
2018-06-08T17:24:26.847Z,5.10
2018-06-08T17:26:56.259Z,5.70
2018-06-08T17:29:25.414Z,5.28
2018-06-08T17:31:54.585Z,5.62
2018-06-08T17:34:23.756Z,6.10
2018-06-08T17:36:52.940Z,5.87
2018-06-08T17:39:22.126Z,6.37
2018-06-08T17:41:51.318Z,5.33
2018-06-08T17:44:20.500Z,5.97
2018-06-08T17:46:49.785Z,5.60
2018-06-08T17:49:18.936Z,6.00
2018-06-08T17:51:48.170Z,5.67
2018-06-08T17:54:17.354Z,6.10
2018-06-08T17:56:46.630Z,6.63
2018-06-08T17:59:15.762Z,6.07
2018-06-08T18:01:44.974Z,6.87
2018-06-08T18:04:14.261Z,6.43
2018-06-08T18:06:43.509Z,6.60
2018-06-08T18:09:13.243Z,6.53
2018-06-08T18:11:42.433Z,6.43
2018-06-08T18:14:11.596Z,6.43
2018-06-08T18:16:40.753Z,6.97
2018-06-08T18:19:09.946Z,6.67
2018-06-08T18:21:39.117Z,7.00
2018-06-08T18:24:08.345Z,6.80
2018-06-08T18:26:37.463Z,7.00
2018-06-08T18:29:06.638Z,6.67
2018-06-08T18:31:35.814Z,6.40
2018-06-08T18:34:05.017Z,5.77
2018-06-08T18:36:34.285Z,6.13
2018-06-08T18:39:06.377Z,6.00
2018-06-08T18:41:37.447Z,6.97
2018-06-08T18:44:08.445Z,7.00
2018-06-08T18:46:39.394Z,6.10
2018-06-08T18:49:10.418Z,7.83
2018-06-08T18:51:41.323Z,7.50
2018-06-08T18:54:10.594Z,7.67
2018-06-08T18:56:39.831Z,8.03
2018-06-08T18:59:08.942Z,7.80
2018-06-08T19:01:38.126Z,7.40
2018-06-08T19:04:07.354Z,7.47
2018-06-08T19:06:36.548Z,8.63
2018-06-08T19:09:08.503Z,8.30
2018-06-08T19:11:37.709Z,8.30
2018-06-08T19:14:06.905Z,7.90
2018-06-08T19:16:36.151Z,8.03
2018-06-08T19:19:05.299Z,8.57
2018-06-08T19:21:34.514Z,8.53
2018-06-08T19:24:03.698Z,8.13
2018-06-08T19:26:32.887Z,7.67
2018-06-08T19:29:02.046Z,7.13
2018-06-08T19:31:31.165Z,7.90
2018-06-08T19:34:00.530Z,8.70
2018-06-08T19:36:29.726Z,8.67
2018-06-08T19:38:58.901Z,9.97
2018-06-08T19:41:28.145Z,9.47
2018-06-08T19:43:57.034Z,9.43
2018-06-08T19:46:26.090Z,11.43
2018-06-08T19:48:55.364Z,11.30
2018-06-08T19:51:24.512Z,11.43
2018-06-08T19:53:53.733Z,10.83
2018-06-08T19:56:22.934Z,10.77
2018-06-08T19:58:52.078Z,10.73
2018-06-08T20:01:21.357Z,11.87
2018-06-08T20:03:50.558Z,10.30
2018-06-08T20:06:19.808Z,10.27
2018-06-08T20:08:48.990Z,10.03
2018-06-08T20:11:18.130Z,12.83
2018-06-08T20:13:47.330Z,11.07
2018-06-08T20:16:16.594Z,10.20
2018-06-08T20:18:45.792Z,10.23
2018-06-08T20:21:14.950Z,8.70
2018-06-08T20:23:44.172Z,11.03
2018-06-08T20:26:13.383Z,11.77
2018-06-08T20:28:42.554Z,9.97
2018-06-08T20:31:11.737Z,10.63
2018-06-08T20:33:41.024Z,11.07
2018-06-08T20:36:10.205Z,11.47
2018-06-08T20:38:39.394Z,13.37
2018-06-08T20:41:08.754Z,12.27
2018-06-08T20:43:37.976Z,12.70
2018-06-08T20:46:06.867Z,10.87
2018-06-08T20:48:35.884Z,10.57
2018-06-08T20:51:05.152Z,10.90
2018-06-08T20:53:34.337Z,9.20
2018-06-08T20:56:03.549Z,10.23
2018-06-08T20:58:32.776Z,10.33
2018-06-08T21:01:02.739Z,13.93
2018-06-08T21:03:31.903Z,14.87
2018-06-08T21:06:01.201Z,14.70
2018-06-08T21:08:30.664Z,11.90
2018-06-08T21:11:00.173Z,12.00
2018-06-08T21:13:29.961Z,12.47
2018-06-08T21:15:59.122Z,11.90
2018-06-08T21:18:28.354Z,11.43
2018-06-08T21:20:57.583Z,10.97
2018-06-08T21:23:26.796Z,11.30
2018-06-08T21:25:55.984Z,10.63
2018-06-08T21:28:25.199Z,10.63
2018-06-08T21:30:54.395Z,9.73
2018-06-08T21:33:23.249Z,10.90
2018-06-08T21:35:52.828Z,12.00
2018-06-08T21:38:22.041Z,11.83
2018-06-08T21:40:51.285Z,11.57
2018-06-08T21:43:20.438Z,11.83
2018-06-08T21:45:49.672Z,12.27
2018-06-08T21:48:18.850Z,13.57
2018-06-08T21:50:48.049Z,13.87
2018-06-08T21:53:17.213Z,14.27
2018-06-08T21:55:46.476Z,13.57
2018-06-08T21:58:15.727Z,13.57
2018-06-08T22:00:44.870Z,14.07
2018-06-08T22:03:14.079Z,14.37
2018-06-08T22:05:43.268Z,13.93
2018-06-08T22:08:12.474Z,13.97
2018-06-08T22:10:41.680Z,14.67
2018-06-08T22:13:10.873Z,14.20
2018-06-08T22:15:40.471Z,13.57
2018-06-08T22:18:09.665Z,13.20
2018-06-08T22:20:38.909Z,12.57
2018-06-08T22:23:08.174Z,12.10
2018-06-08T22:25:37.348Z,12.37
2018-06-08T22:28:06.350Z,12.67
2018-06-08T22:30:35.385Z,12.57
2018-06-08T22:33:04.671Z,14.27
2018-06-08T22:35:33.841Z,14.60
2018-06-08T22:38:03.081Z,15.45
2018-06-08T22:40:32.898Z,13.27
2018-06-08T22:43:02.215Z,11.83
2018-06-08T22:45:31.353Z,12.67
2018-06-08T22:48:00.286Z,13.03
2018-06-08T22:50:29.337Z,13.80
2018-06-08T22:52:58.643Z,13.03
2018-06-08T22:55:27.855Z,12.57
2018-06-08T22:57:57.080Z,12.47
2018-06-08T23:00:26.310Z,11.97
2018-06-08T23:02:55.638Z,12.03
2018-06-08T23:05:24.837Z,12.90
2018-06-08T23:07:53.973Z,12.80
2018-06-08T23:10:23.145Z,14.00
2018-06-08T23:12:52.402Z,12.50
2018-06-08T23:15:21.657Z,13.07
2018-06-08T23:17:50.892Z,11.77
2018-06-08T23:20:20.226Z,12.30
2018-06-08T23:22:49.456Z,12.17
2018-06-08T23:25:19.106Z,11.77
2018-06-08T23:27:48.323Z,12.03
2018-06-08T23:30:17.464Z,11.70
2018-06-08T23:32:46.681Z,11.17
2018-06-08T23:35:15.853Z,11.77
2018-06-08T23:37:45.342Z,11.77
2018-06-08T23:40:14.456Z,11.97
2018-06-08T23:42:43.604Z,11.63
2018-06-08T23:45:13.081Z,11.83
2018-06-08T23:47:42.256Z,11.20
2018-06-08T23:50:11.497Z,11.20
2018-06-08T23:52:40.721Z,10.97
2018-06-08T23:55:09.874Z,11.53
2018-06-08T23:57:39.057Z,10.70
